sensor_id;sensor_type;location;lat;lon;timestamp;P1;durP1;ratioP1;P2;durP2;ratioP2
43086;SDS011;28708;52.224;6.924;2022-11-11T00:03:43;13.63;;;4.97;;
43086;SDS011;28708;52.224;6.924;2022-11-11T00:06:28;13.13;;;5.23;;
43086;SDS011;28708;52.224;6.924;2022-11-11T00:09:12;13.67;;;5.17;;
43086;SDS011;28708;52.224;6.924;2022-11-11T00:11:56;12.40;;;5.03;;
43086;SDS011;28708;52.224;6.924;2022-11-11T00:14:40;15.33;;;4.93;;
43086;SDS011;28708;52.224;6.924;2022-11-11T00:17:24;12.93;;;5.27;;
43086;SDS011;28708;52.224;6.924;2022-11-11T00:20:28;14.20;;;4.83;;
43086;SDS011;28708;52.224;6.924;2022-11-11T00:23:31;14.83;;;5.17;;
43086;SDS011;28708;52.224;6.924;2022-11-11T00:26:34;16.83;;;5.53;;
43086;SDS011;28708;52.224;6.924;2022-11-11T00:29:18;12.83;;;5.07;;
43086;SDS011;28708;52.224;6.924;2022-11-11T00:32:04;15.87;;;5.83;;
43086;SDS011;28708;52.224;6.924;2022-11-11T00:35:09;16.13;;;5.33;;
43086;SDS011;28708;52.224;6.924;2022-11-11T00:38:13;12.17;;;4.83;;
43086;SDS011;28708;52.224;6.924;2022-11-11T00:41:18;13.77;;;5.20;;
43086;SDS011;28708;52.224;6.924;2022-11-11T00:44:04;15.40;;;5.60;;
43086;SDS011;28708;52.224;6.924;2022-11-11T00:46:48;15.00;;;5.50;;
43086;SDS011;28708;52.224;6.924;2022-11-11T00:49:51;9.33;;;4.60;;
43086;SDS011;28708;52.224;6.924;2022-11-11T00:52:54;12.87;;;4.77;;
43086;SDS011;28708;52.224;6.924;2022-11-11T00:55:38;17.33;;;5.70;;
43086;SDS011;28708;52.224;6.924;2022-11-11T00:58:23;13.10;;;5.47;;
43086;SDS011;28708;52.224;6.924;2022-11-11T01:01:07;16.13;;;5.60;;
43086;SDS011;28708;52.224;6.924;2022-11-11T01:03:52;18.67;;;6.27;;
43086;SDS011;28708;52.224;6.924;2022-11-11T01:06:36;14.93;;;5.43;;
43086;SDS011;28708;52.224;6.924;2022-11-11T01:09:20;14.87;;;5.83;;
43086;SDS011;28708;52.224;6.924;2022-11-11T01:12:04;9.80;;;5.63;;
43086;SDS011;28708;52.224;6.924;2022-11-11T01:14:48;16.23;;;6.17;;
43086;SDS011;28708;52.224;6.924;2022-11-11T01:17:33;16.40;;;5.97;;
43086;SDS011;28708;52.224;6.924;2022-11-11T01:20:17;14.37;;;5.67;;
43086;SDS011;28708;52.224;6.924;2022-11-11T01:23:01;12.90;;;5.33;;
43086;SDS011;28708;52.224;6.924;2022-11-11T01:25:48;12.40;;;5.47;;
43086;SDS011;28708;52.224;6.924;2022-11-11T01:28:35;16.47;;;5.80;;
43086;SDS011;28708;52.224;6.924;2022-11-11T01:31:19;13.60;;;6.07;;
43086;SDS011;28708;52.224;6.924;2022-11-11T01:34:05;18.43;;;6.10;;
43086;SDS011;28708;52.224;6.924;2022-11-11T01:36:49;9.73;;;5.60;;
43086;SDS011;28708;52.224;6.924;2022-11-11T01:39:33;12.53;;;6.00;;
43086;SDS011;28708;52.224;6.924;2022-11-11T01:42:17;15.10;;;5.50;;
43086;SDS011;28708;52.224;6.924;2022-11-11T01:45:01;14.80;;;5.77;;
43086;SDS011;28708;52.224;6.924;2022-11-11T01:48:07;11.17;;;5.50;;
43086;SDS011;28708;52.224;6.924;2022-11-11T01:51:48;13.60;;;5.60;;
43086;SDS011;28708;52.224;6.924;2022-11-11T02:00:37;12.90;;;5.73;;
43086;SDS011;28708;52.224;6.924;2022-11-11T02:03:21;13.07;;;5.90;;
43086;SDS011;28708;52.224;6.924;2022-11-11T02:06:09;15.30;;;6.20;;
43086;SDS011;28708;52.224;6.924;2022-11-11T02:08:54;14.07;;;6.07;;
43086;SDS011;28708;52.224;6.924;2022-11-11T02:11:39;12.43;;;6.10;;
43086;SDS011;28708;52.224;6.924;2022-11-11T02:14:44;12.20;;;5.60;;
43086;SDS011;28708;52.224;6.924;2022-11-11T02:17:32;16.70;;;6.53;;
43086;SDS011;28708;52.224;6.924;2022-11-11T02:20:18;14.60;;;5.97;;
43086;SDS011;28708;52.224;6.924;2022-11-11T02:23:24;12.60;;;6.10;;
43086;SDS011;28708;52.224;6.924;2022-11-11T02:26:15;16.17;;;6.53;;
43086;SDS011;28708;52.224;6.924;2022-11-11T02:29:01;18.40;;;7.70;;
43086;SDS011;28708;52.224;6.924;2022-11-11T02:31:50;16.57;;;7.90;;
43086;SDS011;28708;52.224;6.924;2022-11-11T02:34:34;17.77;;;7.87;;
43086;SDS011;28708;52.224;6.924;2022-11-11T02:37:21;19.60;;;9.47;;
43086;SDS011;28708;52.224;6.924;2022-11-11T02:40:06;18.23;;;10.17;;
43086;SDS011;28708;52.224;6.924;2022-11-11T02:42:52;21.83;;;10.40;;
43086;SDS011;28708;52.224;6.924;2022-11-11T02:45:36;28.47;;;10.60;;
43086;SDS011;28708;52.224;6.924;2022-11-11T02:48:20;20.47;;;10.97;;
43086;SDS011;28708;52.224;6.924;2022-11-11T02:51:05;21.93;;;11.43;;
43086;SDS011;28708;52.224;6.924;2022-11-11T02:53:51;19.93;;;11.80;;
43086;SDS011;28708;52.224;6.924;2022-11-11T02:56:35;21.57;;;12.40;;
43086;SDS011;28708;52.224;6.924;2022-11-11T02:59:38;20.10;;;12.40;;
43086;SDS011;28708;52.224;6.924;2022-11-11T03:02:23;24.63;;;12.53;;
43086;SDS011;28708;52.224;6.924;2022-11-11T03:05:09;23.97;;;14.13;;
43086;SDS011;28708;52.224;6.924;2022-11-11T03:07:54;26.67;;;14.43;;
43086;SDS011;28708;52.224;6.924;2022-11-11T03:10:38;22.27;;;14.50;;
43086;SDS011;28708;52.224;6.924;2022-11-11T03:13:22;26.60;;;16.27;;
43086;SDS011;28708;52.224;6.924;2022-11-11T03:16:06;24.47;;;15.27;;
43086;SDS011;28708;52.224;6.924;2022-11-11T03:19:10;28.37;;;16.30;;
43086;SDS011;28708;52.224;6.924;2022-11-11T03:21:54;24.60;;;15.90;;
43086;SDS011;28708;52.224;6.924;2022-11-11T03:24:38;27.60;;;15.23;;
43086;SDS011;28708;52.224;6.924;2022-11-11T03:27:41;28.07;;;15.10;;
43086;SDS011;28708;52.224;6.924;2022-11-11T03:30:25;24.67;;;16.67;;
43086;SDS011;28708;52.224;6.924;2022-11-11T03:33:09;24.30;;;15.73;;
43086;SDS011;28708;52.224;6.924;2022-11-11T03:35:54;25.80;;;16.00;;
43086;SDS011;28708;52.224;6.924;2022-11-11T03:38:38;25.90;;;16.20;;
43086;SDS011;28708;52.224;6.924;2022-11-11T03:41:22;30.93;;;16.43;;
43086;SDS011;28708;52.224;6.924;2022-11-11T03:44:06;26.43;;;16.27;;
43086;SDS011;28708;52.224;6.924;2022-11-11T03:46:50;32.93;;;17.77;;
43086;SDS011;28708;52.224;6.924;2022-11-11T03:49:34;28.70;;;18.47;;
43086;SDS011;28708;52.224;6.924;2022-11-11T03:52:18;28.57;;;17.77;;
43086;SDS011;28708;52.224;6.924;2022-11-11T03:55:02;30.87;;;17.07;;
43086;SDS011;28708;52.224;6.924;2022-11-11T03:57:47;28.27;;;18.47;;
43086;SDS011;28708;52.224;6.924;2022-11-11T04:00:31;32.83;;;19.03;;
43086;SDS011;28708;52.224;6.924;2022-11-11T04:03:17;30.90;;;19.03;;
43086;SDS011;28708;52.224;6.924;2022-11-11T04:06:21;32.63;;;20.43;;
43086;SDS011;28708;52.224;6.924;2022-11-11T04:09:24;29.33;;;19.53;;
43086;SDS011;28708;52.224;6.924;2022-11-11T04:12:27;31.33;;;19.33;;
43086;SDS011;28708;52.224;6.924;2022-11-11T04:15:12;37.13;;;19.17;;
43086;SDS011;28708;52.224;6.924;2022-11-11T04:18:15;28.20;;;18.50;;
43086;SDS011;28708;52.224;6.924;2022-11-11T04:20:59;33.07;;;19.93;;
43086;SDS011;28708;52.224;6.924;2022-11-11T04:24:02;38.83;;;20.87;;
43086;SDS011;28708;52.224;6.924;2022-11-11T04:27:14;32.13;;;19.53;;
43086;SDS011;28708;52.224;6.924;2022-11-11T04:30:00;30.80;;;19.67;;
43086;SDS011;28708;52.224;6.924;2022-11-11T04:32:44;37.30;;;20.07;;
43086;SDS011;28708;52.224;6.924;2022-11-11T04:35:30;35.30;;;21.37;;
43086;SDS011;28708;52.224;6.924;2022-11-11T04:38:14;35.20;;;21.07;;
43086;SDS011;28708;52.224;6.924;2022-11-11T04:41:17;40.73;;;21.20;;
43086;SDS011;28708;52.224;6.924;2022-11-11T04:44:01;35.80;;;21.73;;
43086;SDS011;28708;52.224;6.924;2022-11-11T04:47:04;34.47;;;21.37;;
43086;SDS011;28708;52.224;6.924;2022-11-11T04:49:48;33.33;;;21.27;;
43086;SDS011;28708;52.224;6.924;2022-11-11T04:52:32;39.10;;;22.57;;
43086;SDS011;28708;52.224;6.924;2022-11-11T04:55:17;31.43;;;20.77;;
43086;SDS011;28708;52.224;6.924;2022-11-11T04:58:21;38.30;;;21.10;;
43086;SDS011;28708;52.224;6.924;2022-11-11T05:01:06;38.90;;;21.70;;
43086;SDS011;28708;52.224;6.924;2022-11-11T05:03:50;34.83;;;22.60;;
43086;SDS011;28708;52.224;6.924;2022-11-11T05:06:34;38.93;;;23.20;;
43086;SDS011;28708;52.224;6.924;2022-11-11T05:09:37;32.73;;;21.47;;
43086;SDS011;28708;52.224;6.924;2022-11-11T05:12:21;41.20;;;22.70;;
43086;SDS011;28708;52.224;6.924;2022-11-11T05:15:05;38.10;;;21.60;;
43086;SDS011;28708;52.224;6.924;2022-11-11T05:18:08;40.37;;;24.33;;
43086;SDS011;28708;52.224;6.924;2022-11-11T05:21:19;42.03;;;23.73;;
43086;SDS011;28708;52.224;6.924;2022-11-11T05:24:07;44.77;;;25.97;;
43086;SDS011;28708;52.224;6.924;2022-11-11T05:27:11;45.83;;;23.57;;
43086;SDS011;28708;52.224;6.924;2022-11-11T05:29:55;43.50;;;24.07;;
43086;SDS011;28708;52.224;6.924;2022-11-11T05:32:39;39.30;;;24.13;;
43086;SDS011;28708;52.224;6.924;2022-11-11T05:35:24;43.13;;;23.20;;
43086;SDS011;28708;52.224;6.924;2022-11-11T05:38:08;39.30;;;23.23;;
43086;SDS011;28708;52.224;6.924;2022-11-11T05:41:04;37.97;;;21.33;;
43086;SDS011;28708;52.224;6.924;2022-11-11T05:43:49;36.30;;;22.00;;
43086;SDS011;28708;52.224;6.924;2022-11-11T05:46:34;41.97;;;20.67;;
43086;SDS011;28708;52.224;6.924;2022-11-11T05:49:18;37.80;;;20.20;;
43086;SDS011;28708;52.224;6.924;2022-11-11T05:52:03;35.53;;;19.73;;
43086;SDS011;28708;52.224;6.924;2022-11-11T05:54:48;32.47;;;19.60;;
43086;SDS011;28708;52.224;6.924;2022-11-11T05:57:32;29.70;;;18.70;;
43086;SDS011;28708;52.224;6.924;2022-11-11T06:00:16;28.00;;;18.83;;
43086;SDS011;28708;52.224;6.924;2022-11-11T06:03:01;26.53;;;16.97;;
43086;SDS011;28708;52.224;6.924;2022-11-11T06:05:49;27.83;;;17.97;;
43086;SDS011;28708;52.224;6.924;2022-11-11T06:08:34;28.03;;;17.70;;
43086;SDS011;28708;52.224;6.924;2022-11-11T06:11:18;29.40;;;17.23;;
43086;SDS011;28708;52.224;6.924;2022-11-11T06:14:03;31.10;;;18.70;;
43086;SDS011;28708;52.224;6.924;2022-11-11T06:16:47;29.47;;;18.03;;
43086;SDS011;28708;52.224;6.924;2022-11-11T06:19:31;33.30;;;19.80;;
43086;SDS011;28708;52.224;6.924;2022-11-11T06:22:15;30.90;;;17.77;;
43086;SDS011;28708;52.224;6.924;2022-11-11T06:25:19;30.07;;;17.77;;
43086;SDS011;28708;52.224;6.924;2022-11-11T06:28:23;27.17;;;17.73;;
43086;SDS011;28708;52.224;6.924;2022-11-11T06:31:07;29.83;;;18.83;;
43086;SDS011;28708;52.224;6.924;2022-11-11T06:33:52;31.37;;;18.00;;
43086;SDS011;28708;52.224;6.924;2022-11-11T06:36:36;28.17;;;18.90;;
43086;SDS011;28708;52.224;6.924;2022-11-11T06:39:21;29.37;;;16.97;;
43086;SDS011;28708;52.224;6.924;2022-11-11T06:42:05;28.03;;;16.77;;
43086;SDS011;28708;52.224;6.924;2022-11-11T06:44:49;28.37;;;16.50;;
43086;SDS011;28708;52.224;6.924;2022-11-11T06:47:33;26.13;;;14.87;;
43086;SDS011;28708;52.224;6.924;2022-11-11T06:50:17;29.73;;;16.03;;
43086;SDS011;28708;52.224;6.924;2022-11-11T06:53:06;23.63;;;13.57;;
43086;SDS011;28708;52.224;6.924;2022-11-11T06:55:51;24.90;;;13.33;;
43086;SDS011;28708;52.224;6.924;2022-11-11T06:58:36;24.80;;;14.07;;
43086;SDS011;28708;52.224;6.924;2022-11-11T07:01:21;22.03;;;13.50;;
43086;SDS011;28708;52.224;6.924;2022-11-11T07:04:05;21.80;;;13.10;;
43086;SDS011;28708;52.224;6.924;2022-11-11T07:06:49;24.20;;;12.33;;
43086;SDS011;28708;52.224;6.924;2022-11-11T07:09:33;24.87;;;13.47;;
43086;SDS011;28708;52.224;6.924;2022-11-11T07:12:18;20.07;;;11.77;;
43086;SDS011;28708;52.224;6.924;2022-11-11T07:15:02;27.10;;;12.20;;
43086;SDS011;28708;52.224;6.924;2022-11-11T07:17:47;19.93;;;11.93;;
43086;SDS011;28708;52.224;6.924;2022-11-11T07:20:31;18.27;;;11.53;;
43086;SDS011;28708;52.224;6.924;2022-11-11T07:23:15;19.93;;;11.37;;
43086;SDS011;28708;52.224;6.924;2022-11-11T07:26:00;17.83;;;11.57;;
43086;SDS011;28708;52.224;6.924;2022-11-11T07:28:44;19.20;;;10.83;;
43086;SDS011;28708;52.224;6.924;2022-11-11T07:31:28;19.50;;;10.70;;
43086;SDS011;28708;52.224;6.924;2022-11-11T07:34:13;18.33;;;10.57;;
43086;SDS011;28708;52.224;6.924;2022-11-11T07:36:57;14.97;;;9.40;;
43086;SDS011;28708;52.224;6.924;2022-11-11T07:39:41;20.30;;;10.20;;
43086;SDS011;28708;52.224;6.924;2022-11-11T07:42:25;23.73;;;10.40;;
43086;SDS011;28708;52.224;6.924;2022-11-11T07:45:10;21.30;;;10.23;;
43086;SDS011;28708;52.224;6.924;2022-11-11T07:47:55;15.03;;;8.67;;
43086;SDS011;28708;52.224;6.924;2022-11-11T07:50:40;16.40;;;8.60;;
43086;SDS011;28708;52.224;6.924;2022-11-11T07:53:24;14.13;;;8.50;;
43086;SDS011;28708;52.224;6.924;2022-11-11T07:56:10;16.67;;;8.63;;
43086;SDS011;28708;52.224;6.924;2022-11-11T07:58:55;21.47;;;9.13;;
43086;SDS011;28708;52.224;6.924;2022-11-11T08:01:39;16.30;;;8.33;;
43086;SDS011;28708;52.224;6.924;2022-11-11T08:04:23;16.00;;;8.23;;
43086;SDS011;28708;52.224;6.924;2022-11-11T08:07:07;15.27;;;7.60;;
43086;SDS011;28708;52.224;6.924;2022-11-11T08:09:51;18.03;;;8.10;;
43086;SDS011;28708;52.224;6.924;2022-11-11T08:12:36;16.63;;;7.77;;
43086;SDS011;28708;52.224;6.924;2022-11-11T08:15:39;12.57;;;7.20;;
43086;SDS011;28708;52.224;6.924;2022-11-11T08:18:24;15.63;;;7.57;;
43086;SDS011;28708;52.224;6.924;2022-11-11T08:21:08;16.27;;;6.93;;
43086;SDS011;28708;52.224;6.924;2022-11-11T08:23:52;15.90;;;7.10;;
43086;SDS011;28708;52.224;6.924;2022-11-11T08:26:36;13.40;;;6.30;;
43086;SDS011;28708;52.224;6.924;2022-11-11T08:29:21;13.63;;;6.90;;
43086;SDS011;28708;52.224;6.924;2022-11-11T08:32:05;13.80;;;6.37;;
43086;SDS011;28708;52.224;6.924;2022-11-11T08:34:49;10.77;;;6.50;;
43086;SDS011;28708;52.224;6.924;2022-11-11T08:37:33;12.83;;;6.20;;
43086;SDS011;28708;52.224;6.924;2022-11-11T08:40:17;12.77;;;6.20;;
43086;SDS011;28708;52.224;6.924;2022-11-11T08:43:02;12.90;;;6.27;;
43086;SDS011;28708;52.224;6.924;2022-11-11T08:45:46;12.57;;;5.63;;
43086;SDS011;28708;52.224;6.924;2022-11-11T08:48:31;10.83;;;6.33;;
43086;SDS011;28708;52.224;6.924;2022-11-11T08:51:16;10.97;;;5.93;;
43086;SDS011;28708;52.224;6.924;2022-11-11T08:54:00;12.40;;;5.70;;
43086;SDS011;28708;52.224;6.924;2022-11-11T08:56:44;10.00;;;5.57;;
43086;SDS011;28708;52.224;6.924;2022-11-11T08:59:28;14.67;;;6.13;;
43086;SDS011;28708;52.224;6.924;2022-11-11T09:02:13;10.93;;;5.90;;
43086;SDS011;28708;52.224;6.924;2022-11-11T09:04:57;11.70;;;5.60;;
43086;SDS011;28708;52.224;6.924;2022-11-11T09:07:41;13.63;;;5.20;;
43086;SDS011;28708;52.224;6.924;2022-11-11T09:10:25;10.07;;;5.17;;
43086;SDS011;28708;52.224;6.924;2022-11-11T09:13:09;9.10;;;4.87;;
43086;SDS011;28708;52.224;6.924;2022-11-11T09:15:54;8.87;;;4.37;;
43086;SDS011;28708;52.224;6.924;2022-11-11T09:18:38;10.20;;;4.33;;
43086;SDS011;28708;52.224;6.924;2022-11-11T09:21:22;9.43;;;4.83;;
43086;SDS011;28708;52.224;6.924;2022-11-11T09:24:06;9.70;;;5.03;;
43086;SDS011;28708;52.224;6.924;2022-11-11T09:26:51;9.63;;;4.63;;
43086;SDS011;28708;52.224;6.924;2022-11-11T09:29:35;7.40;;;4.40;;
43086;SDS011;28708;52.224;6.924;2022-11-11T09:32:19;12.30;;;4.23;;
43086;SDS011;28708;52.224;6.924;2022-11-11T09:35:03;6.93;;;3.87;;
43086;SDS011;28708;52.224;6.924;2022-11-11T09:37:52;10.60;;;3.37;;
43086;SDS011;28708;52.224;6.924;2022-11-11T09:40:55;9.63;;;3.27;;
43086;SDS011;28708;52.224;6.924;2022-11-11T09:46:37;10.32;;;3.70;;
43086;SDS011;28708;52.224;6.924;2022-11-11T09:52:45;7.90;;;3.33;;
43086;SDS011;28708;52.224;6.924;2022-11-11T09:55:39;7.50;;;3.77;;
43086;SDS011;28708;52.224;6.924;2022-11-11T09:58:34;7.63;;;3.60;;
43086;SDS011;28708;52.224;6.924;2022-11-11T10:01:25;7.43;;;3.27;;
43086;SDS011;28708;52.224;6.924;2022-11-11T10:04:30;7.73;;;3.23;;
43086;SDS011;28708;52.224;6.924;2022-11-11T10:07:37;9.03;;;3.50;;
43086;SDS011;28708;52.224;6.924;2022-11-11T10:10:37;10.80;;;3.10;;
43086;SDS011;28708;52.224;6.924;2022-11-11T10:13:30;9.40;;;3.30;;
43086;SDS011;28708;52.224;6.924;2022-11-11T10:16:20;8.43;;;3.57;;
43086;SDS011;28708;52.224;6.924;2022-11-11T10:19:29;10.57;;;3.73;;
43086;SDS011;28708;52.224;6.924;2022-11-11T10:22:26;12.43;;;4.90;;
43086;SDS011;28708;52.224;6.924;2022-11-11T10:25:19;7.87;;;3.10;;
43086;SDS011;28708;52.224;6.924;2022-11-11T10:28:04;8.43;;;3.60;;
43086;SDS011;28708;52.224;6.924;2022-11-11T10:30:52;6.03;;;2.87;;
43086;SDS011;28708;52.224;6.924;2022-11-11T10:33:43;8.10;;;3.10;;
43086;SDS011;28708;52.224;6.924;2022-11-11T10:36:52;8.60;;;2.67;;
43086;SDS011;28708;52.224;6.924;2022-11-11T10:42:34;12.93;;;3.00;;
43086;SDS011;28708;52.224;6.924;2022-11-11T10:45:42;9.43;;;2.97;;
43086;SDS011;28708;52.224;6.924;2022-11-11T10:51:14;8.13;;;3.00;;
43086;SDS011;28708;52.224;6.924;2022-11-11T10:54:05;9.57;;;3.53;;
43086;SDS011;28708;52.224;6.924;2022-11-11T10:57:02;8.53;;;3.00;;
43086;SDS011;28708;52.224;6.924;2022-11-11T11:00:03;10.77;;;3.10;;
43086;SDS011;28708;52.224;6.924;2022-11-11T11:05:37;9.77;;;2.97;;
43086;SDS011;28708;52.224;6.924;2022-11-11T11:08:28;9.13;;;2.80;;
43086;SDS011;28708;52.224;6.924;2022-11-11T11:14:09;6.77;;;2.70;;
43086;SDS011;28708;52.224;6.924;2022-11-11T11:17:00;7.53;;;3.00;;
43086;SDS011;28708;52.224;6.924;2022-11-11T11:20:17;7.87;;;3.13;;
43086;SDS011;28708;52.224;6.924;2022-11-11T11:23:03;8.40;;;2.87;;
43086;SDS011;28708;52.224;6.924;2022-11-11T11:25:51;6.00;;;2.37;;
43086;SDS011;28708;52.224;6.924;2022-11-11T11:31:41;11.73;;;2.93;;
43086;SDS011;28708;52.224;6.924;2022-11-11T11:34:41;8.77;;;2.60;;
43086;SDS011;28708;52.224;6.924;2022-11-11T11:37:35;4.93;;;2.13;;
43086;SDS011;28708;52.224;6.924;2022-11-11T11:43:39;7.67;;;2.80;;
43086;SDS011;28708;52.224;6.924;2022-11-11T11:49:45;8.33;;;2.60;;
43086;SDS011;28708;52.224;6.924;2022-11-11T11:52:37;8.77;;;3.23;;
43086;SDS011;28708;52.224;6.924;2022-11-11T11:55:37;8.77;;;2.90;;
43086;SDS011;28708;52.224;6.924;2022-11-11T12:01:35;12.57;;;3.23;;
43086;SDS011;28708;52.224;6.924;2022-11-11T12:08:02;9.60;;;2.27;;
43086;SDS011;28708;52.224;6.924;2022-11-11T12:14:28;7.93;;;2.40;;
43086;SDS011;28708;52.224;6.924;2022-11-11T12:20:19;9.37;;;2.40;;
43086;SDS011;28708;52.224;6.924;2022-11-11T12:23:13;4.63;;;2.20;;
43086;SDS011;28708;52.224;6.924;2022-11-11T12:29:12;6.33;;;2.10;;
43086;SDS011;28708;52.224;6.924;2022-11-11T12:38:11;5.00;;;1.70;;
43086;SDS011;28708;52.224;6.924;2022-11-11T12:44:30;5.32;;;1.95;;
43086;SDS011;28708;52.224;6.924;2022-11-11T12:50:30;6.87;;;2.50;;
43086;SDS011;28708;52.224;6.924;2022-11-11T13:11:40;5.73;;;1.70;;
43086;SDS011;28708;52.224;6.924;2022-11-11T13:15:22;6.10;;;1.77;;
43086;SDS011;28708;52.224;6.924;2022-11-11T13:17:53;8.17;;;2.13;;
43086;SDS011;28708;52.224;6.924;2022-11-11T13:20:53;5.27;;;1.90;;
43086;SDS011;28708;52.224;6.924;2022-11-11T13:23:39;8.97;;;1.77;;
43086;SDS011;28708;52.224;6.924;2022-11-11T13:26:25;6.53;;;2.10;;
43086;SDS011;28708;52.224;6.924;2022-11-11T13:32:40;7.67;;;1.97;;
43086;SDS011;28708;52.224;6.924;2022-11-11T13:41:22;5.97;;;1.93;;
43086;SDS011;28708;52.224;6.924;2022-11-11T13:44:19;6.73;;;1.73;;
43086;SDS011;28708;52.224;6.924;2022-11-11T13:47:35;5.57;;;1.83;;
43086;SDS011;28708;52.224;6.924;2022-11-11T13:50:25;4.03;;;1.60;;
43086;SDS011;28708;52.224;6.924;2022-11-11T13:53:31;4.43;;;1.70;;
43086;SDS011;28708;52.224;6.924;2022-11-11T13:56:27;3.50;;;1.70;;
43086;SDS011;28708;52.224;6.924;2022-11-11T13:59:25;6.32;;;2.00;;
43086;SDS011;28708;52.224;6.924;2022-11-11T14:07:50;6.13;;;1.73;;
43086;SDS011;28708;52.224;6.924;2022-11-11T14:10:44;6.63;;;1.83;;
43086;SDS011;28708;52.224;6.924;2022-11-11T14:13:35;7.70;;;1.67;;
43086;SDS011;28708;52.224;6.924;2022-11-11T14:22:02;7.63;;;2.20;;
43086;SDS011;28708;52.224;6.924;2022-11-11T14:25:17;7.63;;;1.70;;
43086;SDS011;28708;52.224;6.924;2022-11-11T14:34:05;5.97;;;1.67;;
43086;SDS011;28708;52.224;6.924;2022-11-11T14:40:22;4.87;;;1.63;;
43086;SDS011;28708;52.224;6.924;2022-11-11T14:43:34;4.90;;;1.90;;
43086;SDS011;28708;52.224;6.924;2022-11-11T14:46:20;8.00;;;2.30;;
43086;SDS011;28708;52.224;6.924;2022-11-11T14:49:06;9.33;;;2.20;;
43086;SDS011;28708;52.224;6.924;2022-11-11T14:51:52;6.40;;;2.27;;
43086;SDS011;28708;52.224;6.924;2022-11-11T14:58:15;6.23;;;2.53;;
43086;SDS011;28708;52.224;6.924;2022-11-11T15:01:17;7.60;;;2.53;;
43086;SDS011;28708;52.224;6.924;2022-11-11T15:04:03;8.40;;;2.40;;
43086;SDS011;28708;52.224;6.924;2022-11-11T15:06:54;7.47;;;2.10;;
43086;SDS011;28708;52.224;6.924;2022-11-11T15:09:44;6.90;;;2.53;;
43086;SDS011;28708;52.224;6.924;2022-11-11T15:15:40;8.33;;;2.80;;
43086;SDS011;28708;52.224;6.924;2022-11-11T15:19:35;6.63;;;2.77;;
43086;SDS011;28708;52.224;6.924;2022-11-11T15:24:59;11.17;;;2.70;;
43086;SDS011;28708;52.224;6.924;2022-11-11T15:31:30;6.80;;;2.67;;
43086;SDS011;28708;52.224;6.924;2022-11-11T15:37:23;11.53;;;4.03;;
43086;SDS011;28708;52.224;6.924;2022-11-11T15:40:20;8.77;;;3.60;;
43086;SDS011;28708;52.224;6.924;2022-11-11T15:43:05;10.73;;;3.60;;
43086;SDS011;28708;52.224;6.924;2022-11-11T15:45:58;10.97;;;3.50;;
43086;SDS011;28708;52.224;6.924;2022-11-11T15:48:45;10.97;;;3.93;;
43086;SDS011;28708;52.224;6.924;2022-11-11T16:03:14;8.67;;;3.47;;
43086;SDS011;28708;52.224;6.924;2022-11-11T16:06:01;9.10;;;4.00;;
43086;SDS011;28708;52.224;6.924;2022-11-11T16:08:49;8.37;;;3.80;;
43086;SDS011;28708;52.224;6.924;2022-11-11T16:11:39;8.37;;;4.43;;
43086;SDS011;28708;52.224;6.924;2022-11-11T16:14:36;12.13;;;5.70;;
43086;SDS011;28708;52.224;6.924;2022-11-11T16:17:25;12.95;;;5.88;;
43086;SDS011;28708;52.224;6.924;2022-11-11T16:23:02;7.93;;;4.57;;
43086;SDS011;28708;52.224;6.924;2022-11-11T16:25:49;9.63;;;4.83;;
43086;SDS011;28708;52.224;6.924;2022-11-11T16:28:43;11.47;;;4.97;;
43086;SDS011;28708;52.224;6.924;2022-11-11T16:31:39;10.63;;;4.37;;
43086;SDS011;28708;52.224;6.924;2022-11-11T16:37:12;9.60;;;3.93;;
43086;SDS011;28708;52.224;6.924;2022-11-11T16:43:20;9.65;;;4.32;;
43086;SDS011;28708;52.224;6.924;2022-11-11T16:46:07;14.07;;;4.17;;
43086;SDS011;28708;52.224;6.924;2022-11-11T16:48:55;10.73;;;4.63;;
43086;SDS011;28708;52.224;6.924;2022-11-11T16:51:44;10.20;;;4.53;;
43086;SDS011;28708;52.224;6.924;2022-11-11T16:54:30;12.97;;;6.00;;
43086;SDS011;28708;52.224;6.924;2022-11-11T16:57:18;16.63;;;7.30;;
43086;SDS011;28708;52.224;6.924;2022-11-11T17:00:06;13.97;;;7.13;;
43086;SDS011;28708;52.224;6.924;2022-11-11T17:03:18;14.83;;;6.47;;
43086;SDS011;28708;52.224;6.924;2022-11-11T17:06:08;12.27;;;5.70;;
43086;SDS011;28708;52.224;6.924;2022-11-11T17:08:52;13.47;;;5.77;;
43086;SDS011;28708;52.224;6.924;2022-11-11T17:14:29;12.00;;;6.37;;
43086;SDS011;28708;52.224;6.924;2022-11-11T17:17:16;14.87;;;6.27;;
43086;SDS011;28708;52.224;6.924;2022-11-11T17:20:03;19.27;;;6.73;;
43086;SDS011;28708;52.224;6.924;2022-11-11T17:22:50;17.60;;;6.50;;
43086;SDS011;28708;52.224;6.924;2022-11-11T17:25:38;14.77;;;6.60;;
43086;SDS011;28708;52.224;6.924;2022-11-11T17:28:23;13.83;;;6.30;;
43086;SDS011;28708;52.224;6.924;2022-11-11T17:31:08;18.97;;;6.40;;
43086;SDS011;28708;52.224;6.924;2022-11-11T17:33:53;17.07;;;6.47;;
43086;SDS011;28708;52.224;6.924;2022-11-11T17:36:37;14.30;;;6.03;;
43086;SDS011;28708;52.224;6.924;2022-11-11T17:39:22;16.50;;;6.30;;
43086;SDS011;28708;52.224;6.924;2022-11-11T17:42:06;13.43;;;6.13;;
43086;SDS011;28708;52.224;6.924;2022-11-11T17:44:50;14.37;;;6.87;;
43086;SDS011;28708;52.224;6.924;2022-11-11T17:47:35;16.63;;;5.67;;
43086;SDS011;28708;52.224;6.924;2022-11-11T17:50:19;14.93;;;6.30;;
43086;SDS011;28708;52.224;6.924;2022-11-11T17:53:03;14.67;;;6.73;;
43086;SDS011;28708;52.224;6.924;2022-11-11T17:55:48;14.57;;;7.03;;
43086;SDS011;28708;52.224;6.924;2022-11-11T17:58:36;18.47;;;7.57;;
43086;SDS011;28708;52.224;6.924;2022-11-11T18:01:21;12.50;;;7.03;;
43086;SDS011;28708;52.224;6.924;2022-11-11T18:04:05;18.67;;;7.63;;
43086;SDS011;28708;52.224;6.924;2022-11-11T18:06:49;20.27;;;8.07;;
43086;SDS011;28708;52.224;6.924;2022-11-11T18:09:33;15.60;;;7.17;;
43086;SDS011;28708;52.224;6.924;2022-11-11T18:12:17;16.03;;;7.30;;
43086;SDS011;28708;52.224;6.924;2022-11-11T18:15:05;15.70;;;6.80;;
43086;SDS011;28708;52.224;6.924;2022-11-11T18:17:50;14.73;;;7.33;;
43086;SDS011;28708;52.224;6.924;2022-11-11T18:20:34;15.27;;;6.97;;
43086;SDS011;28708;52.224;6.924;2022-11-11T18:23:19;19.10;;;7.80;;
43086;SDS011;28708;52.224;6.924;2022-11-11T18:26:03;17.87;;;7.93;;
43086;SDS011;28708;52.224;6.924;2022-11-11T18:28:48;19.03;;;8.60;;
43086;SDS011;28708;52.224;6.924;2022-11-11T18:31:33;15.10;;;7.67;;
43086;SDS011;28708;52.224;6.924;2022-11-11T18:34:18;16.00;;;7.73;;
43086;SDS011;28708;52.224;6.924;2022-11-11T18:37:02;19.50;;;7.80;;
43086;SDS011;28708;52.224;6.924;2022-11-11T18:39:46;18.53;;;8.30;;
43086;SDS011;28708;52.224;6.924;2022-11-11T18:42:30;15.13;;;6.77;;
43086;SDS011;28708;52.224;6.924;2022-11-11T18:45:14;14.70;;;7.00;;
43086;SDS011;28708;52.224;6.924;2022-11-11T18:47:59;19.93;;;6.97;;
43086;SDS011;28708;52.224;6.924;2022-11-11T18:50:43;17.60;;;7.10;;
43086;SDS011;28708;52.224;6.924;2022-11-11T18:53:35;15.90;;;7.23;;
43086;SDS011;28708;52.224;6.924;2022-11-11T18:56:21;15.37;;;6.87;;
43086;SDS011;28708;52.224;6.924;2022-11-11T18:59:06;15.87;;;6.77;;
43086;SDS011;28708;52.224;6.924;2022-11-11T19:01:50;15.43;;;7.70;;
43086;SDS011;28708;52.224;6.924;2022-11-11T19:04:34;16.17;;;7.63;;
43086;SDS011;28708;52.224;6.924;2022-11-11T19:07:19;22.50;;;10.57;;
43086;SDS011;28708;52.224;6.924;2022-11-11T19:10:03;20.77;;;8.70;;
43086;SDS011;28708;52.224;6.924;2022-11-11T19:12:47;19.27;;;10.23;;
43086;SDS011;28708;52.224;6.924;2022-11-11T19:15:32;18.83;;;10.00;;